Panama City, Panama
Current Conditions -  °F | °C
As of 10:00 PM on Sunday 21 Dec 2014 (Local Time) from MPMG Reporting Station
Clear Clear  
Wind Chill: 79°   Ceiling: Unl
Heat Index: 82°   Visibility: 6mi
Dew Point: 73°   Wind: 3mph
Humidity: 83%   Direction: 330°NNW
Pressure: 29.88"   Gusts: NA
Location:  8.99°N, 79.52°W
Report Text: MPMG 220300Z 33003KT CAVOK 26/23 Q1012 NOSIG
Loading
Personal Weather Stations






























Interactive Weather Map New forecast layout! Learn more

10-Day Weather Forecast

Advertisements
Track Severe Weather on mobile